createdAt,value
2022-12-29T00:00:12.317Z,100586.63
2022-12-29T00:02:40.649Z,100593.63
2022-12-29T00:05:09.437Z,100594.25
2022-12-29T00:07:37.778Z,100606.84
2022-12-29T00:10:06.705Z,100593.75
2022-12-29T00:12:53.887Z,100602.34
2022-12-29T00:15:40.461Z,100591.19
2022-12-29T00:18:09.244Z,100597.13
2022-12-29T00:20:57.129Z,100590.25
2022-12-29T00:23:44.484Z,100598.78
2022-12-29T00:26:34.700Z,100593.88
2022-12-29T00:29:28.325Z,100593.75
2022-12-29T00:32:15.198Z,100585.34
2022-12-29T00:35:03.360Z,100596.91
2022-12-29T00:37:50.169Z,100590.16
2022-12-29T00:40:37.235Z,100579.03
2022-12-29T00:43:23.983Z,100582.28
2022-12-29T00:45:52.412Z,100587.25
2022-12-29T00:48:40.497Z,100582.87
2022-12-29T00:51:09.153Z,100590.72
2022-12-29T00:53:37.267Z,100580.41
2022-12-29T00:56:05.660Z,100588.88
2022-12-29T00:58:34.059Z,100592.00
2022-12-29T01:01:07.592Z,100587.06
2022-12-29T01:03:37.890Z,100590.28
2022-12-29T01:06:09.101Z,100581.94
2022-12-29T01:08:39.438Z,100583.72
2022-12-29T01:11:10.260Z,100578.28
2022-12-29T01:13:39.483Z,100585.22
2022-12-29T01:16:08.424Z,100591.19
2022-12-29T01:18:36.739Z,100593.22
2022-12-29T01:21:07.133Z,100587.50
2022-12-29T01:23:35.228Z,100591.03
2022-12-29T01:26:14.320Z,100583.91
2022-12-29T01:28:42.757Z,100589.78
2022-12-29T01:31:12.557Z,100594.72
2022-12-29T01:33:41.389Z,100598.97
2022-12-29T01:36:15.640Z,100592.87
2022-12-29T01:38:44.951Z,100593.19
2022-12-29T01:41:15.556Z,100601.69
2022-12-29T01:43:51.613Z,100589.47
2022-12-29T01:46:49.590Z,100582.50
2022-12-29T01:49:19.736Z,100587.81
2022-12-29T01:52:00.251Z,100582.94
2022-12-29T01:54:37.531Z,100582.31
2022-12-29T01:57:11.366Z,100571.22
2022-12-29T01:59:43.754Z,100573.41
2022-12-29T02:02:13.312Z,100571.72
2022-12-29T02:04:47.098Z,100561.75
2022-12-29T02:07:21.798Z,100562.91
2022-12-29T02:09:53.331Z,100555.37
2022-12-29T02:12:24.014Z,100553.69
2022-12-29T02:14:59.661Z,100549.09
2022-12-29T02:18:05.414Z,100554.50
2022-12-29T02:20:58.718Z,100564.44
2022-12-29T02:23:39.148Z,100565.53
2022-12-29T02:26:29.476Z,100568.50
2022-12-29T02:29:31.855Z,100541.03
2022-12-29T02:32:06.084Z,100541.00
2022-12-29T02:34:51.171Z,100542.56
2022-12-29T02:37:39.021Z,100539.22
2022-12-29T02:40:24.172Z,100546.66
2022-12-29T02:42:56.510Z,100543.66
2022-12-29T02:45:37.778Z,100553.72
2022-12-29T02:48:31.752Z,100539.00
2022-12-29T02:51:04.436Z,100550.09
2022-12-29T02:53:54.231Z,100545.03
2022-12-29T02:56:23.605Z,100528.41
2022-12-29T02:58:52.370Z,100540.44
2022-12-29T03:02:10.571Z,100531.81
2022-12-29T03:04:52.871Z,100535.03
2022-12-29T03:07:58.738Z,100539.44
2022-12-29T03:10:36.384Z,100526.59
2022-12-29T03:13:49.121Z,100531.03
2022-12-29T03:16:47.266Z,100526.16
2022-12-29T03:19:33.445Z,100530.56
2022-12-29T03:22:27.984Z,100533.19
2022-12-29T03:25:20.149Z,100532.88
2022-12-29T03:27:54.038Z,100535.31
2022-12-29T03:30:23.017Z,100515.13
2022-12-29T03:32:56.949Z,100520.69
2022-12-29T03:35:30.741Z,100524.91
2022-12-29T03:38:12.034Z,100508.22
2022-12-29T03:40:44.958Z,100512.06
2022-12-29T03:43:14.236Z,100519.38
2022-12-29T03:45:42.707Z,100515.37
2022-12-29T03:48:11.302Z,100503.47
2022-12-29T03:50:40.278Z,100498.13
2022-12-29T03:53:08.939Z,100517.81
2022-12-29T03:55:37.147Z,100508.69
2022-12-29T03:58:05.777Z,100515.09
2022-12-29T04:00:34.941Z,100504.72
2022-12-29T04:03:03.597Z,100497.69
2022-12-29T04:05:32.279Z,100491.81
2022-12-29T04:08:01.136Z,100498.37
2022-12-29T04:10:29.657Z,100500.53
2022-12-29T04:12:59.269Z,100500.47
2022-12-29T04:15:27.779Z,100506.22
2022-12-29T04:17:56.357Z,100494.81
2022-12-29T04:20:43.240Z,100498.47
2022-12-29T04:23:11.983Z,100503.38
2022-12-29T04:25:40.261Z,100500.25
2022-12-29T04:28:09.638Z,100506.13
2022-12-29T04:30:38.754Z,100511.31
2022-12-29T04:33:07.226Z,100508.75
2022-12-29T04:35:36.093Z,100495.66
2022-12-29T04:38:04.900Z,100494.97
2022-12-29T04:40:33.489Z,100500.84
2022-12-29T04:43:02.468Z,100501.66
2022-12-29T04:45:31.062Z,100494.06
2022-12-29T04:47:59.647Z,100510.09
2022-12-29T04:50:28.157Z,100506.34
2022-12-29T04:52:56.657Z,100508.69
2022-12-29T04:55:25.183Z,100520.72
2022-12-29T04:57:53.578Z,100504.72
2022-12-29T05:00:22.472Z,100507.91
2022-12-29T05:02:51.498Z,100508.69
2022-12-29T05:05:19.846Z,100509.62
2022-12-29T05:07:48.601Z,100513.78
2022-12-29T05:10:18.134Z,100506.13
2022-12-29T05:12:46.814Z,100510.06
2022-12-29T05:15:15.592Z,100508.59
2022-12-29T05:17:44.495Z,100505.88
2022-12-29T05:20:13.604Z,100513.22
2022-12-29T05:22:43.193Z,100515.00
2022-12-29T05:25:11.690Z,100507.50
2022-12-29T05:27:41.296Z,100506.50
2022-12-29T05:30:11.077Z,100501.75
2022-12-29T05:32:39.401Z,100509.34
2022-12-29T05:35:09.358Z,100512.63
2022-12-29T05:37:38.169Z,100509.81
2022-12-29T05:40:07.026Z,100506.34
2022-12-29T05:42:36.313Z,100507.31
2022-12-29T05:45:08.093Z,100501.22
2022-12-29T05:47:36.868Z,100503.81
2022-12-29T05:50:05.618Z,100500.66
2022-12-29T05:52:34.297Z,100504.78
2022-12-29T05:55:02.887Z,100497.13
2022-12-29T05:57:35.086Z,100494.44
2022-12-29T06:00:06.106Z,100497.91
2022-12-29T06:02:42.819Z,100497.78
2022-12-29T06:05:11.493Z,100495.13
2022-12-29T06:07:40.173Z,100486.69
2022-12-29T06:10:09.086Z,100489.19
2022-12-29T06:12:38.536Z,100498.41
2022-12-29T06:15:07.799Z,100489.31
2022-12-29T06:17:36.357Z,100497.75
2022-12-29T06:20:05.887Z,100495.94
2022-12-29T06:22:34.136Z,100497.69
2022-12-29T06:25:05.214Z,100506.19
2022-12-29T06:27:34.264Z,100495.50
2022-12-29T06:30:02.721Z,100492.75
2022-12-29T06:32:31.084Z,100480.66
2022-12-29T06:35:02.586Z,100486.41
2022-12-29T06:37:31.017Z,100495.13
2022-12-29T06:39:59.250Z,100493.25
2022-12-29T06:42:28.032Z,100493.25
2022-12-29T06:44:59.507Z,100507.66
2022-12-29T06:47:28.237Z,100505.84
2022-12-29T06:49:56.340Z,100509.09
2022-12-29T06:52:25.216Z,100514.03
2022-12-29T06:54:53.593Z,100511.37
2022-12-29T06:57:22.391Z,100512.59
2022-12-29T06:59:50.595Z,100516.13
2022-12-29T07:02:20.667Z,100518.56
2022-12-29T07:04:48.961Z,100502.09
2022-12-29T07:07:17.167Z,100506.03
2022-12-29T07:09:46.713Z,100523.78
2022-12-29T07:12:15.109Z,100515.75
2022-12-29T07:14:43.741Z,100519.38
2022-12-29T07:17:12.313Z,100521.16
2022-12-29T07:19:40.734Z,100511.09
2022-12-29T07:22:10.416Z,100514.13
2022-12-29T07:24:39.247Z,100508.91
2022-12-29T07:27:07.488Z,100520.59
2022-12-29T07:29:37.381Z,100520.22
2022-12-29T07:32:06.138Z,100522.31
2022-12-29T07:34:34.410Z,100527.66
2022-12-29T07:37:02.523Z,100527.59
2022-12-29T07:39:30.905Z,100529.03
2022-12-29T07:42:04.540Z,100537.63
2022-12-29T07:44:38.353Z,100519.41
2022-12-29T07:47:07.402Z,100532.06
2022-12-29T07:49:35.921Z,100523.12
2022-12-29T07:52:04.302Z,100530.47
2022-12-29T07:54:32.524Z,100530.28
2022-12-29T07:57:01.462Z,100540.03
2022-12-29T07:59:29.583Z,100535.66
2022-12-29T08:01:57.873Z,100545.75
2022-12-29T08:04:26.559Z,100534.16
2022-12-29T08:06:54.771Z,100531.66
2022-12-29T08:09:24.315Z,100532.22
2022-12-29T08:11:53.145Z,100534.94
2022-12-29T08:14:21.546Z,100515.78
2022-12-29T08:16:49.706Z,100533.56
2022-12-29T08:19:18.094Z,100533.31
2022-12-29T08:21:47.133Z,100533.31
2022-12-29T08:24:15.377Z,100524.47
2022-12-29T08:26:43.678Z,100525.00
2022-12-29T08:29:12.033Z,100520.97
2022-12-29T08:31:40.220Z,100516.56
2022-12-29T08:34:08.606Z,100518.44
2022-12-29T08:36:36.765Z,100519.09
2022-12-29T08:39:04.909Z,100509.94
2022-12-29T08:41:33.442Z,100506.69
2022-12-29T08:44:01.687Z,100518.87
2022-12-29T08:46:30.208Z,100513.50
2022-12-29T08:48:58.694Z,100514.47
2022-12-29T08:51:26.824Z,100511.69
2022-12-29T08:53:55.287Z,100500.16
2022-12-29T08:56:24.755Z,100510.81
2022-12-29T08:58:53.942Z,100500.47
2022-12-29T09:01:23.842Z,100500.66
2022-12-29T09:04:14.202Z,100494.72
2022-12-29T09:06:42.201Z,100505.56
2022-12-29T09:09:11.428Z,100504.13
2022-12-29T09:11:39.763Z,100491.63
2022-12-29T09:14:08.154Z,100492.81
2022-12-29T09:16:37.215Z,100488.94
2022-12-29T09:19:05.748Z,100486.50
2022-12-29T09:21:33.878Z,100480.25
2022-12-29T09:24:02.733Z,100480.81
2022-12-29T09:26:30.761Z,100475.19
2022-12-29T09:28:58.850Z,100471.47
2022-12-29T09:31:27.291Z,100474.16
2022-12-29T09:33:55.540Z,100474.87
2022-12-29T09:36:23.610Z,100468.06
2022-12-29T09:38:54.741Z,100459.50
2022-12-29T09:41:43.240Z,100467.06
2022-12-29T09:44:41.322Z,100459.41
2022-12-29T09:47:14.407Z,100462.16
2022-12-29T09:49:52.793Z,100465.41
2022-12-29T09:52:26.743Z,100451.22
2022-12-29T09:55:12.007Z,100451.84
2022-12-29T09:57:46.387Z,100446.44
2022-12-29T10:00:20.663Z,100443.87
2022-12-29T10:03:08.107Z,100431.06
2022-12-29T10:05:55.435Z,100431.16
2022-12-29T10:08:33.161Z,100419.66
2022-12-29T10:11:33.255Z,100409.06
2022-12-29T10:14:30.736Z,100423.59
2022-12-29T10:16:58.895Z,100427.50
2022-12-29T10:19:59.018Z,100425.31
2022-12-29T10:22:46.804Z,100431.44
2022-12-29T10:25:29.817Z,100431.38
2022-12-29T10:28:04.434Z,100432.34
2022-12-29T10:30:35.772Z,100430.69
2022-12-29T10:33:11.280Z,100419.50
2022-12-29T10:35:41.673Z,100423.56
2022-12-29T10:38:36.646Z,100412.91
2022-12-29T10:41:12.529Z,100405.06
2022-12-29T10:43:43.921Z,100414.94
2022-12-29T10:46:25.896Z,100413.63
2022-12-29T10:48:54.035Z,100411.78
2022-12-29T10:51:26.179Z,100406.50
2022-12-29T10:54:00.876Z,100409.44
2022-12-29T10:56:53.174Z,100397.09
2022-12-29T10:59:31.613Z,100396.94
2022-12-29T11:02:06.197Z,100393.63
2022-12-29T11:05:00.639Z,100389.25
2022-12-29T11:07:31.173Z,100396.97
2022-12-29T11:10:19.310Z,100387.75
2022-12-29T11:13:03.579Z,100390.25
2022-12-29T11:15:46.305Z,100379.50
2022-12-29T11:18:19.246Z,100373.31
2022-12-29T11:20:47.984Z,100381.59
2022-12-29T11:23:29.634Z,100388.91
2022-12-29T11:26:26.448Z,100393.37
2022-12-29T11:29:17.270Z,100386.16
2022-12-29T11:31:47.998Z,100373.25
2022-12-29T11:34:31.563Z,100381.09
2022-12-29T11:37:21.118Z,100373.25
2022-12-29T11:39:58.341Z,100367.69
2022-12-29T11:42:42.869Z,100377.41
2022-12-29T11:45:19.126Z,100373.59
2022-12-29T11:47:54.312Z,100365.03
2022-12-29T11:50:27.317Z,100351.78
2022-12-29T11:53:09.267Z,100365.50
2022-12-29T11:55:37.942Z,100373.06
2022-12-29T11:58:06.889Z,100367.62
2022-12-29T12:00:41.245Z,100368.66
2022-12-29T12:03:20.913Z,100373.88
2022-12-29T12:06:00.713Z,100363.41
2022-12-29T12:08:38.733Z,100361.06
2022-12-29T12:11:17.596Z,100358.19
2022-12-29T12:14:19.026Z,100344.97
2022-12-29T12:17:12.727Z,100345.28
2022-12-29T12:20:13.074Z,100326.00
2022-12-29T12:22:50.938Z,100331.09
2022-12-29T12:25:30.458Z,100330.81
2022-12-29T12:28:36.906Z,100330.22
2022-12-29T12:31:14.803Z,100316.84
2022-12-29T12:33:45.757Z,100300.12
2022-12-29T12:36:43.154Z,100303.09
2022-12-29T12:39:39.253Z,100299.62
2022-12-29T12:42:08.583Z,100293.59
2022-12-29T12:45:18.567Z,100306.47
2022-12-29T12:48:02.517Z,100297.75
2022-12-29T12:50:51.070Z,100297.19
2022-12-29T12:53:45.295Z,100296.09
2022-12-29T12:56:32.013Z,100294.31
2022-12-29T12:59:09.181Z,100295.25
2022-12-29T13:01:50.481Z,100304.50
2022-12-29T13:04:35.244Z,100310.63
2022-12-29T13:07:06.300Z,100307.09
2022-12-29T13:10:18.017Z,100305.91
2022-12-29T13:13:05.951Z,100313.00
2022-12-29T13:15:57.939Z,100313.28
2022-12-29T13:18:41.866Z,100310.81
2022-12-29T13:21:10.396Z,100307.87
2022-12-29T13:23:50.159Z,100309.94
2022-12-29T13:47:38.074Z,100323.50
2022-12-29T13:50:16.574Z,100316.59
2022-12-29T13:53:25.580Z,100332.94
2022-12-29T13:56:00.816Z,100340.81
2022-12-29T13:58:50.787Z,100343.41
2022-12-29T14:01:28.077Z,100347.06
2022-12-29T14:04:03.857Z,100346.66
2022-12-29T14:06:38.066Z,100335.72
2022-12-29T14:09:31.802Z,100325.94
2022-12-29T14:12:39.710Z,100319.38
2022-12-29T14:15:11.089Z,100320.28
2022-12-29T14:17:45.536Z,100312.94
2022-12-29T14:20:23.501Z,100319.97
2022-12-29T14:23:11.584Z,100312.19
2022-12-29T14:32:27.185Z,100326.25
2022-12-29T14:35:00.446Z,100320.53
2022-12-29T14:37:34.122Z,100324.34
2022-12-29T14:40:07.832Z,100326.41
2022-12-29T14:42:36.460Z,100332.88
2022-12-29T14:45:30.065Z,100351.28
2022-12-29T14:47:58.771Z,100351.22
2022-12-29T14:50:41.945Z,100354.12
2022-12-29T14:53:46.721Z,100357.09
2022-12-29T14:56:21.249Z,100348.41
2022-12-29T14:58:56.423Z,100350.34
2022-12-29T15:01:34.740Z,100367.75
2022-12-29T15:04:21.681Z,100368.81
2022-12-29T15:06:51.503Z,100361.03
2022-12-29T15:09:37.250Z,100363.00
2022-12-29T15:12:17.065Z,100352.06
2022-12-29T15:14:54.595Z,100359.47
2022-12-29T15:17:30.780Z,100365.94
2022-12-29T15:20:01.801Z,100363.69
2022-12-29T15:22:31.666Z,100365.78
2022-12-29T15:24:59.877Z,100359.81
2022-12-29T15:27:28.245Z,100361.75
2022-12-29T15:30:02.945Z,100362.06
2022-12-29T15:32:41.525Z,100373.22
2022-12-29T15:35:33.335Z,100378.44
2022-12-29T15:38:14.344Z,100372.75
2022-12-29T15:40:45.490Z,100373.78
2022-12-29T15:43:25.206Z,100362.72
2022-12-29T15:45:55.854Z,100361.75
2022-12-29T15:48:25.669Z,100373.31
2022-12-29T15:50:54.172Z,100372.78
2022-12-29T15:53:26.943Z,100378.19
2022-12-29T15:56:03.876Z,100367.38
2022-12-29T15:58:40.617Z,100371.63
2022-12-29T16:01:37.980Z,100370.44
2022-12-29T16:07:03.475Z,100373.78
2022-12-29T16:09:42.231Z,100372.16
2022-12-29T16:12:20.367Z,100362.75
2022-12-29T16:14:53.081Z,100366.97
2022-12-29T16:17:28.213Z,100364.62
2022-12-29T16:20:19.407Z,100374.09
2022-12-29T16:23:01.615Z,100364.56
2022-12-29T16:25:33.258Z,100369.94
2022-12-29T16:28:02.613Z,100368.50
2022-12-29T16:30:35.525Z,100364.25
2022-12-29T16:33:06.441Z,100360.38
2022-12-29T16:35:47.436Z,100358.94
2022-12-29T16:38:22.555Z,100377.19
2022-12-29T16:40:54.649Z,100378.91
2022-12-29T16:43:30.650Z,100374.75
2022-12-29T16:46:02.316Z,100376.00
2022-12-29T16:48:32.870Z,100388.16
2022-12-29T16:51:13.739Z,100390.66
2022-12-29T16:53:53.713Z,100384.06
2022-12-29T16:56:26.538Z,100382.00
2022-12-29T16:59:35.408Z,100382.22
2022-12-29T17:02:12.236Z,100388.66
2022-12-29T17:04:40.679Z,100399.84
2022-12-29T17:07:23.544Z,100401.16
2022-12-29T17:09:54.161Z,100388.41
2022-12-29T17:12:30.763Z,100406.28
2022-12-29T17:15:02.547Z,100400.38
2022-12-29T17:17:33.062Z,100391.03
2022-12-29T17:20:07.310Z,100387.00
2022-12-29T17:22:36.944Z,100386.31
2022-12-29T17:25:05.250Z,100388.94
2022-12-29T17:27:38.594Z,100387.66
2022-12-29T17:30:33.515Z,100397.81
2022-12-29T17:33:09.078Z,100385.84
2022-12-29T17:35:37.621Z,100391.75
2022-12-29T17:38:29.840Z,100382.97
2022-12-29T17:40:59.289Z,100389.56
2022-12-29T17:43:34.603Z,100387.34
2022-12-29T17:46:07.445Z,100377.84
2022-12-29T17:48:35.995Z,100379.25
2022-12-29T17:51:04.703Z,100392.78
2022-12-29T17:53:32.959Z,100378.94
2022-12-29T17:56:01.162Z,100378.06
2022-12-29T17:58:31.831Z,100376.44
2022-12-29T18:01:02.075Z,100369.72
2022-12-29T18:03:34.955Z,100357.97
2022-12-29T18:06:08.294Z,100360.50
2022-12-29T18:08:38.796Z,100372.28
2022-12-29T18:11:21.060Z,100365.41
2022-12-29T18:13:49.482Z,100360.28
2022-12-29T18:16:17.730Z,100355.97
2022-12-29T18:18:45.895Z,100353.72
2022-12-29T18:21:20.194Z,100361.31
2022-12-29T18:23:49.042Z,100362.63
2022-12-29T18:26:27.118Z,100361.75
2022-12-29T18:28:58.065Z,100358.16
2022-12-29T18:31:29.300Z,100359.72
2022-12-29T18:33:58.812Z,100356.13
2022-12-29T18:36:29.023Z,100351.12
2022-12-29T18:38:59.673Z,100345.19
2022-12-29T18:41:32.403Z,100337.06
2022-12-29T18:44:01.245Z,100345.69
2022-12-29T18:46:30.197Z,100349.56
2022-12-29T18:48:58.609Z,100348.72
2022-12-29T18:51:26.844Z,100352.09
2022-12-29T18:53:55.217Z,100341.56
2022-12-29T18:56:24.320Z,100340.91
2022-12-29T18:58:56.873Z,100332.88
2022-12-29T19:01:28.233Z,100328.13
2022-12-29T19:03:57.090Z,100345.94
2022-12-29T19:06:25.654Z,100342.91
2022-12-29T19:08:53.907Z,100344.28
2022-12-29T19:11:22.569Z,100331.22
2022-12-29T19:13:51.104Z,100329.25
2022-12-29T19:16:22.643Z,100335.44
2022-12-29T19:19:07.969Z,100344.28
2022-12-29T19:21:37.935Z,100345.31
2022-12-29T19:24:06.542Z,100336.09
2022-12-29T19:26:37.526Z,100338.78
2022-12-29T19:29:16.242Z,100324.13
2022-12-29T19:31:44.875Z,100337.88
2022-12-29T19:34:17.180Z,100341.22
2022-12-29T19:36:46.054Z,100329.63
2022-12-29T19:39:14.525Z,100335.81
2022-12-29T19:41:42.731Z,100334.41
2022-12-29T19:44:11.293Z,100337.69
2022-12-29T19:46:39.614Z,100334.03
2022-12-29T19:49:07.841Z,100330.59
2022-12-29T19:51:36.516Z,100332.13
2022-12-29T19:54:04.757Z,100330.75
2022-12-29T19:56:32.924Z,100316.88
2022-12-29T19:59:01.447Z,100324.91
2022-12-29T20:01:29.909Z,100330.12
2022-12-29T20:03:58.376Z,100334.47
2022-12-29T20:06:26.547Z,100318.84
2022-12-29T20:08:55.678Z,100324.25
2022-12-29T20:11:24.365Z,100296.56
2022-12-29T20:13:52.553Z,100313.25
2022-12-29T20:16:21.179Z,100309.72
2022-12-29T20:18:49.734Z,100311.91
2022-12-29T20:21:20.990Z,100328.72
2022-12-29T20:23:51.237Z,100308.53
2022-12-29T20:26:25.549Z,100323.88
2022-12-29T20:28:57.796Z,100316.06
2022-12-29T20:31:29.508Z,100322.97
2022-12-29T20:33:58.633Z,100317.53
2022-12-29T20:36:35.139Z,100315.94
2022-12-29T20:39:07.494Z,100308.06
2022-12-29T20:41:36.284Z,100310.94
2022-12-29T20:44:05.566Z,100309.59
2022-12-29T20:46:43.041Z,100306.53
2022-12-29T20:49:12.462Z,100309.03
2022-12-29T20:54:38.456Z,100306.28
2022-12-29T20:57:07.646Z,100307.87
2022-12-29T20:59:36.371Z,100312.78
2022-12-29T21:02:05.095Z,100304.97
2022-12-29T21:04:57.727Z,100323.91
2022-12-29T21:07:21.659Z,100317.88
2022-12-29T21:09:49.816Z,100315.81
2022-12-29T21:12:17.984Z,100321.41
2022-12-29T21:14:46.451Z,100314.38
2022-12-29T21:17:14.616Z,100319.53
2022-12-29T21:19:42.689Z,100314.25
2022-12-29T21:22:11.528Z,100312.47
2022-12-29T21:24:39.658Z,100320.34
2022-12-29T21:27:07.731Z,100319.31
2022-12-29T21:29:36.276Z,100308.59
2022-12-29T21:32:06.758Z,100307.69
2022-12-29T21:34:35.661Z,100322.72
2022-12-29T21:37:03.875Z,100305.53
2022-12-29T21:39:32.098Z,100309.72
2022-12-29T21:42:00.798Z,100301.75
2022-12-29T21:44:47.484Z,100307.69
2022-12-29T21:47:15.993Z,100306.16
2022-12-29T21:49:44.353Z,100313.06
2022-12-29T21:52:12.462Z,100300.66
2022-12-29T21:54:59.681Z,100315.78
2022-12-29T21:57:46.622Z,100322.16
2022-12-29T22:00:34.779Z,100317.84
2022-12-29T22:03:23.662Z,100314.78
2022-12-29T22:06:11.688Z,100319.97
2022-12-29T22:08:59.085Z,100317.53
2022-12-29T22:11:45.843Z,100312.63
2022-12-29T22:14:14.276Z,100295.50
2022-12-29T22:16:42.469Z,100299.09
2022-12-29T22:19:11.125Z,100297.72
2022-12-29T22:21:39.574Z,100287.44
2022-12-29T22:24:08.701Z,100295.81
2022-12-29T22:26:36.928Z,100295.31
2022-12-29T22:29:05.494Z,100296.00
2022-12-29T22:31:33.937Z,100297.66
2022-12-29T22:34:03.650Z,100292.91
2022-12-29T22:36:32.703Z,100288.75
2022-12-29T22:39:00.718Z,100285.38
2022-12-29T22:41:28.769Z,100285.31
2022-12-29T22:43:57.293Z,100287.09
2022-12-29T22:46:25.506Z,100290.78
2022-12-29T22:48:53.736Z,100302.13
2022-12-29T22:51:22.400Z,100298.28
2022-12-29T22:53:51.022Z,100300.12
2022-12-29T22:56:19.511Z,100298.16
2022-12-29T22:58:48.829Z,100296.28
2022-12-29T23:01:19.246Z,100284.84
2022-12-29T23:03:48.659Z,100287.41
2022-12-29T23:06:17.625Z,100300.06
2022-12-29T23:08:47.309Z,100285.34
2022-12-29T23:11:16.669Z,100281.66
2022-12-29T23:13:45.142Z,100286.50
2022-12-29T23:16:15.420Z,100285.34
2022-12-29T23:18:46.004Z,100276.62
2022-12-29T23:21:16.395Z,100274.25
2022-12-29T23:24:03.842Z,100269.28
2022-12-29T23:26:38.848Z,100268.41
2022-12-29T23:29:09.382Z,100264.31
2022-12-29T23:31:38.789Z,100255.91
2022-12-29T23:34:09.001Z,100258.19
2022-12-29T23:36:37.424Z,100251.16
2022-12-29T23:39:05.716Z,100243.72
2022-12-29T23:41:35.571Z,100251.28
2022-12-29T23:44:03.892Z,100258.06
2022-12-29T23:46:32.352Z,100263.47
2022-12-29T23:49:00.730Z,100259.47
2022-12-29T23:51:29.189Z,100252.34
2022-12-29T23:53:57.342Z,100244.31
2022-12-29T23:56:25.789Z,100247.56
2022-12-29T23:58:54.007Z,100251.66
